METAR Data
IDs: Format: Raw Decoded Include TAF

Data at: 1725 UTC 03 Jul 2020

METAR for:KZZV (Zanesville Muni, OH, US)
Text:KZZV 031653Z AUTO VRB05KT 10SM CLR 30/18 A3004 RMK AO2 SLP163 T03000178
Temperature: 30.0°C ( 86°F)
Dewpoint: 17.8°C ( 64°F) [RH = 48%]
Pressure (altimeter):30.04 inches Hg (1017.4 mb) [Sea level pressure: 1016.3 mb]
Winds:variable direction winds at 6 MPH (5 knots; 2.6 m/s)
Visibility:10 or more sm (16+ km)
Ceiling:at least 12,000 feet AGL
Clouds:sky clear below 12,000 feet AGL
QC Flag:automated observation with no human augmentation